CPA852 VHHH-KSEA
Flight info
| Callsign | CPA852 |
|---|---|
| Flight time | N/A |
| Altitude | 37000 |
| Route | DALOL V631 ENVAR M750 MELEN/N0482F390 M750 MUKEP Y891 OVSUN/N0477F380 Y893 IGMIS/N0477F390 Y57 POROT Y809 IDLAN Y812 ADNAP OTR5 KALNA DCT KALIG DCT CUTEE DCT CARTO/N0477F410 DCT 50N180E 51N170W 52N160W 53N150W 53N140W DCT MANJO DCT TOU JAWBN7 |
| Aircraft | A359/H-SDE2E3GHIJ3J4J5LM1ORWXY/LB1D1 |
Departure
| Time | N/A |
|---|---|
| Airport | Hong Kong International Airport (VHHH) |
Arrival
| Time | 2026-05-06 02:28 |
|---|---|
| Airport | Seattle–Tacoma International Airport (KSEA) |
| Time | Latitude | Longitude | Altitude | Speed | Heading |
|---|---|---|---|---|---|
| 2026-05-06 01:51 | 47.82522 | -122.81762 | 13828 ft | 334 kts | 115° |
| 2026-05-06 01:51 | 47.81481 | -122.78729 | 12921 ft | 329 kts | 115° |
| 2026-05-06 01:52 | 47.80448 | -122.75719 | 12052 ft | 322 kts | 115° |
| 2026-05-06 01:52 | 47.79436 | -122.72776 | 11265 ft | 317 kts | 115° |
| 2026-05-06 01:52 | 47.78440 | -122.69886 | 10452 ft | 311 kts | 116° |
| 2026-05-06 01:52 | 47.77517 | -122.67208 | 9709 ft | 306 kts | 116° |
| 2026-05-06 01:53 | 47.76539 | -122.64379 | 8792 ft | 302 kts | 116° |
| 2026-05-06 01:53 | 47.75586 | -122.61624 | 7940 ft | 298 kts | 116° |
| 2026-05-06 01:53 | 47.74642 | -122.58898 | 7146 ft | 294 kts | 116° |
| 2026-05-06 01:53 | 47.73725 | -122.56253 | 6635 ft | 280 kts | 116° |
| 2026-05-06 01:54 | 47.72862 | -122.53767 | 6325 ft | 262 kts | 116° |
| 2026-05-06 01:54 | 47.72053 | -122.51442 | 6027 ft | 245 kts | 116° |
| 2026-05-06 01:54 | 47.71295 | -122.49265 | 5772 ft | 230 kts | 115° |
| 2026-05-06 01:54 | 47.70666 | -122.47458 | 5535 ft | 219 kts | 115° |
| 2026-05-06 02:01 | 47.70652 | -122.47418 | 5532 ft | 219 kts | 115° |
| 2026-05-06 02:02 | 47.69959 | -122.45424 | 5299 ft | 215 kts | 115° |
| 2026-05-06 02:02 | 47.69444 | -122.44007 | 5109 ft | 213 kts | 119° |
| 2026-05-06 02:20 | 47.68778 | -122.42900 | 4926 ft | 212 kts | 146° |
| 2026-05-06 02:21 | 47.67379 | -122.42397 | 4890 ft | 208 kts | 188° |
| 2026-05-06 02:21 | 47.65978 | -122.42688 | 5000 ft | 210 kts | 183° |
| 2026-05-06 02:21 | 47.64641 | -122.42074 | 4774 ft | 206 kts | 140° |
| 2026-05-06 02:21 | 47.63938 | -122.40300 | 4373 ft | 201 kts | 95° |
| 2026-05-06 02:22 | 47.64226 | -122.38380 | 3997 ft | 190 kts | 58° |
| 2026-05-06 02:22 | 47.64869 | -122.36679 | 3513 ft | 190 kts | 66° |
| 2026-05-06 02:22 | 47.65001 | -122.34717 | 3323 ft | 194 kts | 92° |
| 2026-05-06 02:22 | 47.64874 | -122.32763 | 3366 ft | 195 kts | 98° |
| 2026-05-06 02:23 | 47.64209 | -122.31123 | 3425 ft | 198 kts | 142° |
| 2026-05-06 02:23 | 47.63014 | -122.30477 | 3512 ft | 196 kts | 174° |
| 2026-05-06 02:23 | 47.61676 | -122.30572 | 3465 ft | 195 kts | 191° |
| 2026-05-06 02:23 | 47.60332 | -122.30878 | 3220 ft | 194 kts | 187° |
| 2026-05-06 02:24 | 47.58991 | -122.30981 | 2952 ft | 193 kts | 181° |
| 2026-05-06 02:24 | 47.57664 | -122.30927 | 2690 ft | 188 kts | 178° |
| 2026-05-06 02:24 | 47.56415 | -122.30832 | 2448 ft | 176 kts | 178° |
| 2026-05-06 02:24 | 47.55220 | -122.30766 | 2202 ft | 164 kts | 180° |
| 2026-05-06 02:25 | 47.54147 | -122.30743 | 2002 ft | 152 kts | 181° |
| 2026-05-06 02:25 | 47.53212 | -122.30728 | 1821 ft | 146 kts | 181° |
| 2026-05-06 02:25 | 47.52246 | -122.30731 | 1628 ft | 136 kts | 181° |
| 2026-05-06 02:25 | 47.51323 | -122.30751 | 1467 ft | 129 kts | 183° |
| 2026-05-06 02:26 | 47.50425 | -122.30764 | 1271 ft | 129 kts | 181° |
| 2026-05-06 02:26 | 47.49652 | -122.30764 | 1111 ft | 129 kts | 181° |
| 2026-05-06 02:26 | 47.48761 | -122.30749 | 954 ft | 131 kts | 180° |
| 2026-05-06 02:26 | 47.47894 | -122.30764 | 800 ft | 129 kts | 182° |
| 2026-05-06 02:27 | 47.47037 | -122.30773 | 635 ft | 127 kts | 180° |
| 2026-05-06 02:27 | 47.46192 | -122.30774 | 468 ft | 126 kts | 181° |
| 2026-05-06 02:27 | 47.45376 | -122.30780 | 423 ft | 112 kts | 181° |
| 2026-05-06 02:27 | 47.44673 | -122.30791 | 406 ft | 87 kts | 180° |
| 2026-05-06 02:28 | 47.44162 | -122.30795 | 392 ft | 57 kts | 180° |
| 2026-05-06 02:28 | 47.43967 | -122.30795 | 388 ft | 13 kts | 178° |
| 2026-05-06 02:28 | 47.43907 | -122.30734 | 386 ft | 12 kts | 109° |
| 2026-05-06 02:28 | 47.43936 | -122.30652 | 387 ft | 9 kts | 29° |
| 2026-05-06 02:29 | 47.43983 | -122.30597 | 390 ft | 9 kts | 63° |
| 2026-05-06 02:29 | 47.43991 | -122.30498 | 391 ft | 9 kts | 91° |
| 2026-05-06 02:29 | 47.43990 | -122.30390 | 392 ft | 12 kts | 90° |
| 2026-05-06 02:29 | 47.43990 | -122.30330 | 393 ft | 3 kts | 91° |
| 2026-05-06 02:30 | 47.43980 | -122.30297 | 393 ft | 5 kts | 126° |
| 2026-05-06 02:30 | 47.43960 | -122.30274 | 393 ft | 3 kts | 149° |
| 2026-05-06 02:30 | 47.43950 | -122.30266 | 393 ft | 1 kts | 150° |
| 2026-05-06 02:30 | 47.43947 | -122.30264 | 393 ft | 0 kts | 150° |